Seitenverwaltung

Live am Platz

Die Bilder unserer Webcams werden alle 5 Minuten aktualisiert.

Sonnenaufgang:

03:33 UTC / 05:33 Lokal

Sonnenuntergang:

19:07 UTC / 21:07 Lokal

METAR (24.05.2018 12:20 UTC):

EDNY 241220Z 26005KT 9999 FEW040 20/13 Q1018
VFR

TAF (24.05.2018 11:00 UTC):

TAF EDNY 241100Z 2412/2512 23005KT 9999 SCT030 PROB30 TEMPO 2412/2416 TSRA SCT030CB BECMG 2416/2418 VRB03KT BECMG 2509/2511 23005KT

Alle Angaben unverbindlich und ohne Gewähr. Zeiten genähert.

Für den Verkehrslandeplatz Konstanz werden keine offiziellen Wetterinformationen herausgegeben. Daher werden zur Orientierung Daten des nahegelegenen Flughafens Friedrichshafen dargestellt.